Kaio Maru — JD2067 — position and weather

sailwx.info

Track history (hours):
 
Tides and Currents Weather Stations Pressure Air Temp Water Temp Dewpoint Dewpoint Depression Visibility Wind Speed Wind Dir Waves Ship Positions

Kaio Maru

Last reported at 2015-Feb-28 09:20 UTC. Time now 2015-Feb-28 17:31 UTC.
Position N 35°38' E 139°46'.

Length 36 m; draft 3.2 m.

Type: Tug. MMSI: 431001455.

Date/timePositionNaut miles runAvg speedWind from/ knotsBaromVisibWave heightAir tempDewpointWater temp
2015-Feb-28 09:20N 35°38' E 139°46'1 1.2
2015-Feb-28 08:30N 35°37' E 139°46'1 0.1
2015-Feb-27 23:05N 35°38' E 139°46'3 5.0
2015-Feb-27 22:33N 35°36' E 139°48'3 2.6
2015-Feb-27 21:33N 35°34' E 139°50'4 3.8
2015-Feb-27 20:33N 35°36' E 139°46'3 0.2
2015-Feb-27 03:27N 35°37' E 139°50'2 1.8
2015-Feb-27 02:33N 35°36' E 139°50'3 0.2
2015-Feb-26 12:27N 35°36' E 139°46'3 3.2
2015-Feb-26 11:33N 35°34' E 139°49'4 1.8
2015-Feb-26 09:32N 35°37' E 139°46'4 3.7
2015-Feb-26 08:33N 35°34' E 139°49'2 2.3
2015-Feb-26 07:32N 35°36' E 139°47'3 0.2
2015-Feb-25 18:08N 35°38' E 139°45'0 0.0
2015-Feb-25 17:28N 35°38' E 139°45'0 0.0
2015-Feb-25 15:22N 35°38' E 139°45'0 0.0
2015-Feb-25 14:33N 35°38' E 139°45'0 0.0
2015-Feb-25 13:23N 35°38' E 139°45'0 0.0
2015-Feb-25 10:10N 35°38' E 139°45'0 0.0
2015-Feb-25 09:31N 35°38' E 139°45'0 0.0
2015-Feb-25 08:26N 35°38' E 139°45'0 0.0
2015-Feb-25 07:19N 35°38' E 139°45'0 0.0
2015-Feb-25 06:28N 35°38' E 139°45'0 0.0
2015-Feb-25 05:32N 35°38' E 139°45'0 0.0
2015-Feb-25 04:30N 35°38' E 139°45'0 0.0
2015-Feb-25 02:29N 35°38' E 139°45'0 0.0
2015-Feb-24 21:29N 35°38' E 139°45'0 0.0
2015-Feb-24 20:25N 35°38' E 139°45'0 0.0
2015-Feb-24 19:31N 35°38' E 139°45'0 0.0
2015-Feb-24 18:33N 35°38' E 139°45'0 0.0
2015-Feb-24 17:29N 35°38' E 139°45'2 1.7
2015-Feb-24 16:33N 35°37' E 139°46'1 0.4
2015-Feb-24 13:16N 35°38' E 139°46'3 3.9
2015-Feb-24 12:28N 35°35' E 139°47'1 0.5
2015-Feb-24 11:33N 35°35' E 139°47'3 0.7
2015-Feb-24 07:17N 35°38' E 139°45'0 0.0
2015-Feb-24 06:33N 35°38' E 139°45'0 0.0
2015-Feb-24 05:31N 35°38' E 139°45'0 0.0
2015-Feb-24 04:30N 35°38' E 139°45'3 2.2
2015-Feb-24 03:15N 35°37' E 139°48'1 1.1
2015-Feb-24 02:31N 35°36' E 139°48'3 2.5
2015-Feb-24 01:30N 35°38' E 139°45'0 0.0
2015-Feb-23 19:23N 35°38' E 139°45'0 0.0
2015-Feb-23 18:30N 35°38' E 139°45'0 0.0
2015-Feb-23 17:30N 35°38' E 139°45'0 0.0
2015-Feb-23 16:32N 35°38' E 139°45'0 0.0
2015-Feb-23 15:27N 35°38' E 139°45'0 0.0
2015-Feb-23 14:33N 35°38' E 139°45'1 0.2
2015-Feb-23 10:14N 35°37' E 139°46'2 2.3
2015-Feb-23 09:26N 35°36' E 139°47'3 3.1
2015-Feb-23 08:32N 35°34' E 139°50'3 2.4
2015-Feb-23 07:20N 35°36' E 139°47'1 0.7
2015-Feb-23 06:33N 35°36' E 139°47'3 1.2
2015-Feb-23 04:15N 35°38' E 139°45'0 0.0
2015-Feb-23 03:30N 35°38' E 139°45'0 0.0
2015-Feb-23 02:32N 35°38' E 139°45'2 0.4
2015-Feb-22 22:29N 35°37' E 139°46'3 3.2
2015-Feb-22 21:33N 35°35' E 139°49'3 0.1
2015-Feb-20 22:33N 35°37' E 139°46'4 4.0
2015-Feb-20 21:33N 35°34' E 139°49'5 4.6
2015-Feb-20 20:33N 35°38' E 139°46'0 0.0
2015-Feb-19 23:33N 35°38' E 139°46'4 3.7
2015-Feb-19 22:32N 35°35' E 139°48'1 1.0
2015-Feb-19 21:33N 35°35' E 139°47'3 0.1
2015-Feb-19 03:30N 35°38' E 139°46'3 3.1
2015-Feb-19 02:29N 35°35' E 139°48'3 3.3
2015-Feb-19 01:29N 35°38' E 139°46'3 0.2
2015-Feb-18 10:32N 35°36' E 139°47'3 2.6
2015-Feb-18 09:28N 35°38' E 139°45'  
Track history (hours):
 
Tides and Currents Weather Stations Pressure Air Temp Water Temp Dewpoint Dewpoint Depression Visibility Wind Speed Wind Dir Waves Ship Positions

Kaio Maru

Last reported at 2015-Feb-28 09:20 UTC. Time now 2015-Feb-28 17:31 UTC.
Position N 35°38' E 139°46'.

Length 36 m; draft 3.2 m.

Type: Tug. MMSI: 431001455.

Date/timePositionNaut miles runAvg speedWind from/ knotsBaromVisibWave heightAir tempDewpointWater temp
2015-Feb-28 09:20N 35°38' E 139°46'1 1.2
2015-Feb-28 08:30N 35°37' E 139°46'1 0.1
2015-Feb-27 23:05N 35°38' E 139°46'3 5.0
2015-Feb-27 22:33N 35°36' E 139°48'3 2.6
2015-Feb-27 21:33N 35°34' E 139°50'4 3.8
2015-Feb-27 20:33N 35°36' E 139°46'3 0.2
2015-Feb-27 03:27N 35°37' E 139°50'2 1.8
2015-Feb-27 02:33N 35°36' E 139°50'3 0.2
2015-Feb-26 12:27N 35°36' E 139°46'3 3.2
2015-Feb-26 11:33N 35°34' E 139°49'4 1.8
2015-Feb-26 09:32N 35°37' E 139°46'4 3.7
2015-Feb-26 08:33N 35°34' E 139°49'2 2.3
2015-Feb-26 07:32N 35°36' E 139°47'3 0.2
2015-Feb-25 18:08N 35°38' E 139°45'0 0.0
2015-Feb-25 17:28N 35°38' E 139°45'0 0.0
2015-Feb-25 15:22N 35°38' E 139°45'0 0.0
2015-Feb-25 14:33N 35°38' E 139°45'0 0.0
2015-Feb-25 13:23N 35°38' E 139°45'0 0.0
2015-Feb-25 10:10N 35°38' E 139°45'0 0.0
2015-Feb-25 09:31N 35°38' E 139°45'0 0.0
2015-Feb-25 08:26N 35°38' E 139°45'0 0.0
2015-Feb-25 07:19N 35°38' E 139°45'0 0.0
2015-Feb-25 06:28N 35°38' E 139°45'0 0.0
2015-Feb-25 05:32N 35°38' E 139°45'0 0.0
2015-Feb-25 04:30N 35°38' E 139°45'0 0.0
2015-Feb-25 02:29N 35°38' E 139°45'0 0.0
2015-Feb-24 21:29N 35°38' E 139°45'0 0.0
2015-Feb-24 20:25N 35°38' E 139°45'0 0.0
2015-Feb-24 19:31N 35°38' E 139°45'0 0.0
2015-Feb-24 18:33N 35°38' E 139°45'0 0.0
2015-Feb-24 17:29N 35°38' E 139°45'2 1.7
2015-Feb-24 16:33N 35°37' E 139°46'1 0.4
2015-Feb-24 13:16N 35°38' E 139°46'3 3.9
2015-Feb-24 12:28N 35°35' E 139°47'1 0.5
2015-Feb-24 11:33N 35°35' E 139°47'3 0.7
2015-Feb-24 07:17N 35°38' E 139°45'0 0.0
2015-Feb-24 06:33N 35°38' E 139°45'0 0.0
2015-Feb-24 05:31N 35°38' E 139°45'0 0.0
2015-Feb-24 04:30N 35°38' E 139°45'3 2.2
2015-Feb-24 03:15N 35°37' E 139°48'1 1.1
2015-Feb-24 02:31N 35°36' E 139°48'3 2.5
2015-Feb-24 01:30N 35°38' E 139°45'0 0.0
2015-Feb-23 19:23N 35°38' E 139°45'0 0.0
2015-Feb-23 18:30N 35°38' E 139°45'0 0.0
2015-Feb-23 17:30N 35°38' E 139°45'0 0.0
2015-Feb-23 16:32N 35°38' E 139°45'0 0.0
2015-Feb-23 15:27N 35°38' E 139°45'0 0.0
2015-Feb-23 14:33N 35°38' E 139°45'1 0.2
2015-Feb-23 10:14N 35°37' E 139°46'2 2.3
2015-Feb-23 09:26N 35°36' E 139°47'3 3.1
2015-Feb-23 08:32N 35°34' E 139°50'3 2.4
2015-Feb-23 07:20N 35°36' E 139°47'1 0.7
2015-Feb-23 06:33N 35°36' E 139°47'3 1.2
2015-Feb-23 04:15N 35°38' E 139°45'0 0.0
2015-Feb-23 03:30N 35°38' E 139°45'0 0.0
2015-Feb-23 02:32N 35°38' E 139°45'2 0.4
2015-Feb-22 22:29N 35°37' E 139°46'3 3.2
2015-Feb-22 21:33N 35°35' E 139°49'3 0.1
2015-Feb-20 22:33N 35°37' E 139°46'4 4.0
2015-Feb-20 21:33N 35°34' E 139°49'5 4.6
2015-Feb-20 20:33N 35°38' E 139°46'0 0.0
2015-Feb-19 23:33N 35°38' E 139°46'4 3.7
2015-Feb-19 22:32N 35°35' E 139°48'1 1.0
2015-Feb-19 21:33N 35°35' E 139°47'3 0.1
2015-Feb-19 03:30N 35°38' E 139°46'3 3.1
2015-Feb-19 02:29N 35°35' E 139°48'3 3.3
2015-Feb-19 01:29N 35°38' E 139°46'3 0.2
2015-Feb-18 10:32N 35°36' E 139°47'3 2.6
2015-Feb-18 09:28N 35°38' E 139°45'  

Dump ship's entire track history